sensor_id;sensor_type;location;lat;lon;timestamp;temperature;humidity
16627;DHT22;8427;52.204;7.202;2023-07-24T00:02:13;18.90;86.50
16627;DHT22;8427;52.204;7.202;2023-07-24T00:04:41;18.80;86.80
16627;DHT22;8427;52.204;7.202;2023-07-24T00:07:09;18.90;87.20
16627;DHT22;8427;52.204;7.202;2023-07-24T00:09:37;18.80;87.50
16627;DHT22;8427;52.204;7.202;2023-07-24T00:12:06;18.80;87.90
16627;DHT22;8427;52.204;7.202;2023-07-24T00:14:34;18.60;88.10
16627;DHT22;8427;52.204;7.202;2023-07-24T00:17:02;18.60;88.20
16627;DHT22;8427;52.204;7.202;2023-07-24T00:19:31;18.70;88.40
16627;DHT22;8427;52.204;7.202;2023-07-24T00:21:59;18.80;88.40
16627;DHT22;8427;52.204;7.202;2023-07-24T00:24:27;18.70;88.50
16627;DHT22;8427;52.204;7.202;2023-07-24T00:26:55;18.60;88.50
16627;DHT22;8427;52.204;7.202;2023-07-24T00:29:23;18.70;88.50
16627;DHT22;8427;52.204;7.202;2023-07-24T00:31:51;18.60;88.50
16627;DHT22;8427;52.204;7.202;2023-07-24T00:34:19;18.60;88.80
16627;DHT22;8427;52.204;7.202;2023-07-24T00:36:48;18.60;88.90
16627;DHT22;8427;52.204;7.202;2023-07-24T00:39:16;18.60;89.10
16627;DHT22;8427;52.204;7.202;2023-07-24T00:41:44;18.60;89.20
16627;DHT22;8427;52.204;7.202;2023-07-24T00:44:12;18.60;89.10
16627;DHT22;8427;52.204;7.202;2023-07-24T00:46:40;18.60;89.10
16627;DHT22;8427;52.204;7.202;2023-07-24T00:49:08;18.60;89.20
16627;DHT22;8427;52.204;7.202;2023-07-24T00:51:36;18.50;89.10
16627;DHT22;8427;52.204;7.202;2023-07-24T00:54:06;18.60;89.10
16627;DHT22;8427;52.204;7.202;2023-07-24T00:56:34;18.60;89.10
16627;DHT22;8427;52.204;7.202;2023-07-24T00:59:02;18.60;89.20
16627;DHT22;8427;52.204;7.202;2023-07-24T01:01:30;18.60;89.20
16627;DHT22;8427;52.204;7.202;2023-07-24T01:03:58;18.60;88.90
16627;DHT22;8427;52.204;7.202;2023-07-24T01:06:26;18.60;88.90
16627;DHT22;8427;52.204;7.202;2023-07-24T01:08:55;18.70;89.00
16627;DHT22;8427;52.204;7.202;2023-07-24T01:11:27;18.60;89.00
16627;DHT22;8427;52.204;7.202;2023-07-24T01:13:58;18.60;88.80
16627;DHT22;8427;52.204;7.202;2023-07-24T01:16:36;18.70;88.70
16627;DHT22;8427;52.204;7.202;2023-07-24T01:19:11;18.60;88.70
16627;DHT22;8427;52.204;7.202;2023-07-24T01:21:48;18.60;88.60
16627;DHT22;8427;52.204;7.202;2023-07-24T01:24:30;18.70;88.50
16627;DHT22;8427;52.204;7.202;2023-07-24T01:27:02;18.60;88.60
16627;DHT22;8427;52.204;7.202;2023-07-24T01:29:31;18.60;88.40
16627;DHT22;8427;52.204;7.202;2023-07-24T01:31:59;18.70;88.40
16627;DHT22;8427;52.204;7.202;2023-07-24T01:34:27;18.70;88.40
16627;DHT22;8427;52.204;7.202;2023-07-24T01:36:55;18.70;88.20
16627;DHT22;8427;52.204;7.202;2023-07-24T01:39:23;18.80;88.20
16627;DHT22;8427;52.204;7.202;2023-07-24T01:41:51;18.60;88.30
16627;DHT22;8427;52.204;7.202;2023-07-24T01:44:20;18.60;88.20
16627;DHT22;8427;52.204;7.202;2023-07-24T01:46:49;18.70;88.10
16627;DHT22;8427;52.204;7.202;2023-07-24T01:49:17;18.70;88.30
16627;DHT22;8427;52.204;7.202;2023-07-24T01:51:44;18.70;88.00
16627;DHT22;8427;52.204;7.202;2023-07-24T01:54:13;18.70;88.20
16627;DHT22;8427;52.204;7.202;2023-07-24T01:56:40;18.60;88.20
16627;DHT22;8427;52.204;7.202;2023-07-24T01:59:10;18.70;88.10
16627;DHT22;8427;52.204;7.202;2023-07-24T02:01:40;18.70;88.10
16627;DHT22;8427;52.204;7.202;2023-07-24T02:04:08;18.60;88.10
16627;DHT22;8427;52.204;7.202;2023-07-24T02:06:36;18.60;88.10
16627;DHT22;8427;52.204;7.202;2023-07-24T02:09:04;18.70;88.20
16627;DHT22;8427;52.204;7.202;2023-07-24T02:11:32;18.60;88.30
16627;DHT22;8427;52.204;7.202;2023-07-24T02:14:00;18.70;88.20
16627;DHT22;8427;52.204;7.202;2023-07-24T02:16:28;18.70;88.20
16627;DHT22;8427;52.204;7.202;2023-07-24T02:18:58;18.60;88.10
16627;DHT22;8427;52.204;7.202;2023-07-24T02:21:26;18.70;88.10
16627;DHT22;8427;52.204;7.202;2023-07-24T02:23:54;18.70;88.10
16627;DHT22;8427;52.204;7.202;2023-07-24T02:26:22;18.70;88.10
16627;DHT22;8427;52.204;7.202;2023-07-24T02:28:50;18.70;88.00
16627;DHT22;8427;52.204;7.202;2023-07-24T02:31:17;18.70;88.00
16627;DHT22;8427;52.204;7.202;2023-07-24T02:33:45;18.80;88.20
16627;DHT22;8427;52.204;7.202;2023-07-24T02:36:15;18.70;88.20
16627;DHT22;8427;52.204;7.202;2023-07-24T02:38:43;18.80;88.20
16627;DHT22;8427;52.204;7.202;2023-07-24T02:41:11;18.70;88.10
16627;DHT22;8427;52.204;7.202;2023-07-24T02:43:39;18.70;88.10
16627;DHT22;8427;52.204;7.202;2023-07-24T02:46:06;18.70;88.20
16627;DHT22;8427;52.204;7.202;2023-07-24T02:48:35;18.70;88.20
16627;DHT22;8427;52.204;7.202;2023-07-24T02:51:03;18.70;88.20
16627;DHT22;8427;52.204;7.202;2023-07-24T02:53:32;18.70;88.20
16627;DHT22;8427;52.204;7.202;2023-07-24T02:56:01;18.60;88.10
16627;DHT22;8427;52.204;7.202;2023-07-24T02:58:29;18.60;88.20
16627;DHT22;8427;52.204;7.202;2023-07-24T03:01:02;18.60;88.30
16627;DHT22;8427;52.204;7.202;2023-07-24T03:03:31;18.60;88.30
16627;DHT22;8427;52.204;7.202;2023-07-24T03:05:59;18.60;88.30
16627;DHT22;8427;52.204;7.202;2023-07-24T03:08:27;18.60;88.40
16627;DHT22;8427;52.204;7.202;2023-07-24T03:10:57;18.60;88.40
16627;DHT22;8427;52.204;7.202;2023-07-24T03:13:25;18.70;88.40
16627;DHT22;8427;52.204;7.202;2023-07-24T03:15:53;18.50;88.20
16627;DHT22;8427;52.204;7.202;2023-07-24T03:18:21;18.60;88.40
16627;DHT22;8427;52.204;7.202;2023-07-24T03:20:49;18.60;88.50
16627;DHT22;8427;52.204;7.202;2023-07-24T03:23:18;18.60;88.40
16627;DHT22;8427;52.204;7.202;2023-07-24T03:25:46;18.60;88.60
16627;DHT22;8427;52.204;7.202;2023-07-24T03:28:16;18.60;88.70
16627;DHT22;8427;52.204;7.202;2023-07-24T03:30:44;18.60;88.60
16627;DHT22;8427;52.204;7.202;2023-07-24T03:33:12;18.50;88.70
16627;DHT22;8427;52.204;7.202;2023-07-24T03:35:40;18.50;88.80
16627;DHT22;8427;52.204;7.202;2023-07-24T03:38:08;18.50;88.90
16627;DHT22;8427;52.204;7.202;2023-07-24T03:40:36;18.50;89.10
16627;DHT22;8427;52.204;7.202;2023-07-24T03:43:04;18.60;89.10
16627;DHT22;8427;52.204;7.202;2023-07-24T03:45:33;18.50;89.10
16627;DHT22;8427;52.204;7.202;2023-07-24T03:48:01;18.60;89.20
16627;DHT22;8427;52.204;7.202;2023-07-24T03:50:29;18.50;89.50
16627;DHT22;8427;52.204;7.202;2023-07-24T03:52:57;18.50;89.50
16627;DHT22;8427;52.204;7.202;2023-07-24T03:55:25;18.50;89.70
16627;DHT22;8427;52.204;7.202;2023-07-24T03:57:53;18.40;89.80
16627;DHT22;8427;52.204;7.202;2023-07-24T04:00:21;18.50;89.70
16627;DHT22;8427;52.204;7.202;2023-07-24T04:02:50;18.50;89.90
16627;DHT22;8427;52.204;7.202;2023-07-24T04:05:19;18.50;90.00
16627;DHT22;8427;52.204;7.202;2023-07-24T04:07:47;18.40;90.20
16627;DHT22;8427;52.204;7.202;2023-07-24T04:10:15;18.40;90.30
16627;DHT22;8427;52.204;7.202;2023-07-24T04:12:43;18.40;90.40
16627;DHT22;8427;52.204;7.202;2023-07-24T04:15:11;18.30;90.50
16627;DHT22;8427;52.204;7.202;2023-07-24T04:17:39;18.30;90.60
16627;DHT22;8427;52.204;7.202;2023-07-24T04:20:10;18.20;90.90
16627;DHT22;8427;52.204;7.202;2023-07-24T04:22:38;18.20;91.10
16627;DHT22;8427;52.204;7.202;2023-07-24T04:25:07;18.30;91.10
16627;DHT22;8427;52.204;7.202;2023-07-24T04:27:35;18.30;91.20
16627;DHT22;8427;52.204;7.202;2023-07-24T04:30:04;18.20;91.30
16627;DHT22;8427;52.204;7.202;2023-07-24T04:32:32;18.20;91.20
16627;DHT22;8427;52.204;7.202;2023-07-24T04:35:00;18.20;91.40
16627;DHT22;8427;52.204;7.202;2023-07-24T04:37:29;18.10;91.40
16627;DHT22;8427;52.204;7.202;2023-07-24T04:39:58;18.20;91.50
16627;DHT22;8427;52.204;7.202;2023-07-24T04:42:25;18.20;91.50
16627;DHT22;8427;52.204;7.202;2023-07-24T04:44:53;18.20;91.60
16627;DHT22;8427;52.204;7.202;2023-07-24T04:47:21;18.20;91.60
16627;DHT22;8427;52.204;7.202;2023-07-24T04:49:49;18.10;91.70
16627;DHT22;8427;52.204;7.202;2023-07-24T04:52:17;18.10;91.70
16627;DHT22;8427;52.204;7.202;2023-07-24T04:54:46;18.10;91.70
16627;DHT22;8427;52.204;7.202;2023-07-24T04:57:14;18.10;91.70
16627;DHT22;8427;52.204;7.202;2023-07-24T04:59:42;18.10;91.70
16627;DHT22;8427;52.204;7.202;2023-07-24T05:02:10;18.10;91.70
16627;DHT22;8427;52.204;7.202;2023-07-24T05:04:38;18.10;91.90
16627;DHT22;8427;52.204;7.202;2023-07-24T05:07:06;18.10;91.90
16627;DHT22;8427;52.204;7.202;2023-07-24T05:09:34;18.00;91.90
16627;DHT22;8427;52.204;7.202;2023-07-24T05:12:05;18.10;91.90
16627;DHT22;8427;52.204;7.202;2023-07-24T05:14:33;18.00;91.90
16627;DHT22;8427;52.204;7.202;2023-07-24T05:17:01;18.00;91.80
16627;DHT22;8427;52.204;7.202;2023-07-24T05:19:29;18.00;91.80
16627;DHT22;8427;52.204;7.202;2023-07-24T05:21:57;18.00;92.00
16627;DHT22;8427;52.204;7.202;2023-07-24T05:24:26;18.00;92.20
16627;DHT22;8427;52.204;7.202;2023-07-24T05:26:54;18.00;92.10
16627;DHT22;8427;52.204;7.202;2023-07-24T05:29:23;17.90;92.20
16627;DHT22;8427;52.204;7.202;2023-07-24T05:31:51;17.90;92.30
16627;DHT22;8427;52.204;7.202;2023-07-24T05:34:19;18.00;92.40
16627;DHT22;8427;52.204;7.202;2023-07-24T05:36:47;18.00;92.30
16627;DHT22;8427;52.204;7.202;2023-07-24T05:39:15;17.90;92.30
16627;DHT22;8427;52.204;7.202;2023-07-24T05:41:43;17.90;92.40
16627;DHT22;8427;52.204;7.202;2023-07-24T05:44:11;17.90;92.30
16627;DHT22;8427;52.204;7.202;2023-07-24T05:46:40;17.90;92.20
16627;DHT22;8427;52.204;7.202;2023-07-24T05:49:08;18.00;92.30
16627;DHT22;8427;52.204;7.202;2023-07-24T05:51:36;18.00;92.30
16627;DHT22;8427;52.204;7.202;2023-07-24T05:54:04;17.90;92.20
16627;DHT22;8427;52.204;7.202;2023-07-24T05:56:31;17.90;92.10
16627;DHT22;8427;52.204;7.202;2023-07-24T05:58:59;17.80;92.20
16627;DHT22;8427;52.204;7.202;2023-07-24T06:01:27;17.90;92.10
16627;DHT22;8427;52.204;7.202;2023-07-24T06:03:57;17.90;92.10
16627;DHT22;8427;52.204;7.202;2023-07-24T06:06:25;17.70;92.10
16627;DHT22;8427;52.204;7.202;2023-07-24T06:08:55;17.70;92.10
16627;DHT22;8427;52.204;7.202;2023-07-24T06:11:23;17.70;91.90
16627;DHT22;8427;52.204;7.202;2023-07-24T06:13:53;17.50;91.90
16627;DHT22;8427;52.204;7.202;2023-07-24T06:16:21;17.60;91.90
16627;DHT22;8427;52.204;7.202;2023-07-24T06:18:49;17.70;91.90
16627;DHT22;8427;52.204;7.202;2023-07-24T06:21:18;17.50;92.10
16627;DHT22;8427;52.204;7.202;2023-07-24T06:23:46;17.60;92.30
16627;DHT22;8427;52.204;7.202;2023-07-24T06:26:14;17.60;92.40
16627;DHT22;8427;52.204;7.202;2023-07-24T06:28:43;17.60;92.40
16627;DHT22;8427;52.204;7.202;2023-07-24T06:31:10;17.60;92.40
16627;DHT22;8427;52.204;7.202;2023-07-24T06:33:38;17.60;92.30
16627;DHT22;8427;52.204;7.202;2023-07-24T06:36:09;17.60;92.20
16627;DHT22;8427;52.204;7.202;2023-07-24T06:38:38;17.50;92.30
16627;DHT22;8427;52.204;7.202;2023-07-24T06:41:08;17.60;92.10
16627;DHT22;8427;52.204;7.202;2023-07-24T06:43:36;17.60;91.80
16627;DHT22;8427;52.204;7.202;2023-07-24T06:46:04;17.40;91.80
16627;DHT22;8427;52.204;7.202;2023-07-24T06:48:32;17.40;91.80
16627;DHT22;8427;52.204;7.202;2023-07-24T06:51:00;17.50;92.00
16627;DHT22;8427;52.204;7.202;2023-07-24T06:53:28;17.60;91.70
16627;DHT22;8427;52.204;7.202;2023-07-24T06:55:58;17.70;91.50
16627;DHT22;8427;52.204;7.202;2023-07-24T06:58:26;17.80;91.40
16627;DHT22;8427;52.204;7.202;2023-07-24T07:00:54;18.00;91.40
16627;DHT22;8427;52.204;7.202;2023-07-24T07:03:22;18.10;91.10
16627;DHT22;8427;52.204;7.202;2023-07-24T07:05:49;18.10;90.80
16627;DHT22;8427;52.204;7.202;2023-07-24T07:08:18;18.10;90.70
16627;DHT22;8427;52.204;7.202;2023-07-24T07:10:45;18.20;90.50
16627;DHT22;8427;52.204;7.202;2023-07-24T07:13:15;18.20;90.20
16627;DHT22;8427;52.204;7.202;2023-07-24T07:15:43;18.50;90.40
16627;DHT22;8427;52.204;7.202;2023-07-24T07:18:11;18.60;89.70
16627;DHT22;8427;52.204;7.202;2023-07-24T07:20:45;18.70;89.60
16627;DHT22;8427;52.204;7.202;2023-07-24T07:23:13;18.90;89.40
16627;DHT22;8427;52.204;7.202;2023-07-24T07:25:41;19.00;88.60
16627;DHT22;8427;52.204;7.202;2023-07-24T07:28:11;19.20;87.90
16627;DHT22;8427;52.204;7.202;2023-07-24T07:30:41;19.40;86.90
16627;DHT22;8427;52.204;7.202;2023-07-24T07:33:11;19.50;86.70
16627;DHT22;8427;52.204;7.202;2023-07-24T07:35:39;19.60;86.30
16627;DHT22;8427;52.204;7.202;2023-07-24T07:38:07;19.50;85.80
16627;DHT22;8427;52.204;7.202;2023-07-24T07:40:37;19.30;85.20
16627;DHT22;8427;52.204;7.202;2023-07-24T07:43:06;19.10;85.60
16627;DHT22;8427;52.204;7.202;2023-07-24T07:45:34;19.00;86.10
16627;DHT22;8427;52.204;7.202;2023-07-24T07:48:03;19.10;86.60
16627;DHT22;8427;52.204;7.202;2023-07-24T07:50:32;19.10;86.10
16627;DHT22;8427;52.204;7.202;2023-07-24T07:53:00;19.00;86.60
16627;DHT22;8427;52.204;7.202;2023-07-24T07:55:27;19.10;86.40
16627;DHT22;8427;52.204;7.202;2023-07-24T07:57:55;19.00;86.10
16627;DHT22;8427;52.204;7.202;2023-07-24T08:00:23;19.10;86.50
16627;DHT22;8427;52.204;7.202;2023-07-24T08:02:51;19.30;86.20
16627;DHT22;8427;52.204;7.202;2023-07-24T08:05:21;19.30;86.00
16627;DHT22;8427;52.204;7.202;2023-07-24T08:07:49;19.20;85.90
16627;DHT22;8427;52.204;7.202;2023-07-24T08:10:17;19.30;85.50
16627;DHT22;8427;52.204;7.202;2023-07-24T08:12:45;19.40;85.40
16627;DHT22;8427;52.204;7.202;2023-07-24T08:15:13;19.50;85.10
16627;DHT22;8427;52.204;7.202;2023-07-24T08:17:41;19.50;84.40
16627;DHT22;8427;52.204;7.202;2023-07-24T08:20:10;19.50;84.80
16627;DHT22;8427;52.204;7.202;2023-07-24T08:22:39;19.80;85.00
16627;DHT22;8427;52.204;7.202;2023-07-24T08:25:07;19.80;83.80
16627;DHT22;8427;52.204;7.202;2023-07-24T08:27:36;19.90;83.90
16627;DHT22;8427;52.204;7.202;2023-07-24T08:30:24;19.90;82.80
16627;DHT22;8427;52.204;7.202;2023-07-24T08:32:52;19.90;83.00
16627;DHT22;8427;52.204;7.202;2023-07-24T08:35:20;20.00;82.20
16627;DHT22;8427;52.204;7.202;2023-07-24T08:37:50;20.00;81.90
16627;DHT22;8427;52.204;7.202;2023-07-24T08:40:18;20.10;81.40
16627;DHT22;8427;52.204;7.202;2023-07-24T08:42:49;20.20;78.50
16627;DHT22;8427;52.204;7.202;2023-07-24T08:45:17;20.10;80.30
16627;DHT22;8427;52.204;7.202;2023-07-24T08:47:46;20.20;81.00
16627;DHT22;8427;52.204;7.202;2023-07-24T08:50:15;20.40;81.30
16627;DHT22;8427;52.204;7.202;2023-07-24T08:52:44;20.40;80.10
16627;DHT22;8427;52.204;7.202;2023-07-24T08:55:15;20.40;79.60
16627;DHT22;8427;52.204;7.202;2023-07-24T08:57:43;20.60;80.60
16627;DHT22;8427;52.204;7.202;2023-07-24T09:00:12;20.50;78.00
16627;DHT22;8427;52.204;7.202;2023-07-24T09:02:40;20.40;79.60
16627;DHT22;8427;52.204;7.202;2023-07-24T09:05:08;20.40;77.70
16627;DHT22;8427;52.204;7.202;2023-07-24T09:07:38;20.20;78.30
16627;DHT22;8427;52.204;7.202;2023-07-24T09:10:07;20.20;78.90
16627;DHT22;8427;52.204;7.202;2023-07-24T09:12:41;20.30;80.10
16627;DHT22;8427;52.204;7.202;2023-07-24T09:15:10;20.40;79.20
16627;DHT22;8427;52.204;7.202;2023-07-24T09:17:47;20.50;79.70
16627;DHT22;8427;52.204;7.202;2023-07-24T09:20:17;20.60;79.90
16627;DHT22;8427;52.204;7.202;2023-07-24T09:22:58;20.80;79.20
16627;DHT22;8427;52.204;7.202;2023-07-24T09:25:32;20.90;79.60
16627;DHT22;8427;52.204;7.202;2023-07-24T09:28:09;21.10;77.30
16627;DHT22;8427;52.204;7.202;2023-07-24T09:30:38;21.40;75.90
16627;DHT22;8427;52.204;7.202;2023-07-24T09:33:06;21.50;75.60
16627;DHT22;8427;52.204;7.202;2023-07-24T09:35:34;21.50;74.90
16627;DHT22;8427;52.204;7.202;2023-07-24T09:38:04;21.60;74.70
16627;DHT22;8427;52.204;7.202;2023-07-24T09:40:42;21.60;72.50
16627;DHT22;8427;52.204;7.202;2023-07-24T09:43:19;21.50;72.30
16627;DHT22;8427;52.204;7.202;2023-07-24T09:46:06;21.60;74.50
16627;DHT22;8427;52.204;7.202;2023-07-24T09:48:35;21.70;74.80
16627;DHT22;8427;52.204;7.202;2023-07-24T09:51:11;21.80;74.80
16627;DHT22;8427;52.204;7.202;2023-07-24T09:53:43;22.00;75.20
16627;DHT22;8427;52.204;7.202;2023-07-24T09:56:15;21.90;73.50
16627;DHT22;8427;52.204;7.202;2023-07-24T09:58:48;21.70;73.10
16627;DHT22;8427;52.204;7.202;2023-07-24T10:01:21;21.60;74.10
16627;DHT22;8427;52.204;7.202;2023-07-24T10:03:50;21.50;75.30
16627;DHT22;8427;52.204;7.202;2023-07-24T10:06:19;21.50;73.90
16627;DHT22;8427;52.204;7.202;2023-07-24T10:08:47;21.60;73.00
16627;DHT22;8427;52.204;7.202;2023-07-24T10:11:16;21.40;74.10
16627;DHT22;8427;52.204;7.202;2023-07-24T10:13:45;21.20;72.80
16627;DHT22;8427;52.204;7.202;2023-07-24T10:16:14;21.10;72.30
16627;DHT22;8427;52.204;7.202;2023-07-24T10:18:44;21.20;74.30
16627;DHT22;8427;52.204;7.202;2023-07-24T10:21:13;21.50;74.30
16627;DHT22;8427;52.204;7.202;2023-07-24T10:23:42;22.00;73.20
16627;DHT22;8427;52.204;7.202;2023-07-24T10:26:13;22.10;69.50
16627;DHT22;8427;52.204;7.202;2023-07-24T10:28:42;22.10;70.20
16627;DHT22;8427;52.204;7.202;2023-07-24T10:31:23;21.90;71.00
16627;DHT22;8427;52.204;7.202;2023-07-24T10:33:54;21.80;71.80
16627;DHT22;8427;52.204;7.202;2023-07-24T10:36:23;21.90;72.00
16627;DHT22;8427;52.204;7.202;2023-07-24T10:38:53;21.90;72.40
16627;DHT22;8427;52.204;7.202;2023-07-24T10:41:21;22.00;71.00
16627;DHT22;8427;52.204;7.202;2023-07-24T10:43:51;21.90;69.70
16627;DHT22;8427;52.204;7.202;2023-07-24T10:46:21;21.80;70.20
16627;DHT22;8427;52.204;7.202;2023-07-24T10:48:51;21.80;72.10
16627;DHT22;8427;52.204;7.202;2023-07-24T10:51:21;22.20;72.80
16627;DHT22;8427;52.204;7.202;2023-07-24T10:53:49;22.30;69.00
16627;DHT22;8427;52.204;7.202;2023-07-24T10:56:17;22.40;68.40
16627;DHT22;8427;52.204;7.202;2023-07-24T10:58:45;22.40;67.30
16627;DHT22;8427;52.204;7.202;2023-07-24T11:01:13;22.40;67.30
16627;DHT22;8427;52.204;7.202;2023-07-24T11:03:44;22.50;67.10
16627;DHT22;8427;52.204;7.202;2023-07-24T11:06:13;22.80;65.00
16627;DHT22;8427;52.204;7.202;2023-07-24T11:08:50;23.00;66.50
16627;DHT22;8427;52.204;7.202;2023-07-24T11:11:18;23.30;64.90
16627;DHT22;8427;52.204;7.202;2023-07-24T11:13:46;23.30;64.70
16627;DHT22;8427;52.204;7.202;2023-07-24T11:16:13;23.50;63.70
16627;DHT22;8427;52.204;7.202;2023-07-24T11:18:46;23.50;65.60
16627;DHT22;8427;52.204;7.202;2023-07-24T11:21:20;23.50;64.70
16627;DHT22;8427;52.204;7.202;2023-07-24T11:23:50;23.70;65.20
16627;DHT22;8427;52.204;7.202;2023-07-24T11:26:18;23.70;63.50
16627;DHT22;8427;52.204;7.202;2023-07-24T11:28:46;23.80;62.50
16627;DHT22;8427;52.204;7.202;2023-07-24T11:31:14;23.70;61.50
16627;DHT22;8427;52.204;7.202;2023-07-24T11:33:47;23.70;62.90
16627;DHT22;8427;52.204;7.202;2023-07-24T11:36:17;23.80;62.60
16627;DHT22;8427;52.204;7.202;2023-07-24T11:38:47;23.60;61.10
16627;DHT22;8427;52.204;7.202;2023-07-24T11:41:16;23.50;62.40
16627;DHT22;8427;52.204;7.202;2023-07-24T11:43:45;23.00;61.90
16627;DHT22;8427;52.204;7.202;2023-07-24T11:46:22;22.80;64.10
16627;DHT22;8427;52.204;7.202;2023-07-24T11:48:51;22.70;65.90
16627;DHT22;8427;52.204;7.202;2023-07-24T11:51:20;22.40;65.00
16627;DHT22;8427;52.204;7.202;2023-07-24T11:53:48;22.10;66.70
16627;DHT22;8427;52.204;7.202;2023-07-24T11:56:16;21.80;66.50
16627;DHT22;8427;52.204;7.202;2023-07-24T11:58:44;21.60;66.50
16627;DHT22;8427;52.204;7.202;2023-07-24T12:01:12;21.40;67.00
16627;DHT22;8427;52.204;7.202;2023-07-24T12:03:40;21.50;69.30
16627;DHT22;8427;52.204;7.202;2023-07-24T12:06:14;21.70;67.50
16627;DHT22;8427;52.204;7.202;2023-07-24T12:08:43;21.90;67.40
16627;DHT22;8427;52.204;7.202;2023-07-24T12:11:17;22.00;68.30
16627;DHT22;8427;52.204;7.202;2023-07-24T12:13:45;22.10;67.30
16627;DHT22;8427;52.204;7.202;2023-07-24T12:16:13;22.20;64.90
16627;DHT22;8427;52.204;7.202;2023-07-24T12:18:41;22.30;63.70
16627;DHT22;8427;52.204;7.202;2023-07-24T12:21:08;22.40;64.60
16627;DHT22;8427;52.204;7.202;2023-07-24T12:23:38;22.60;64.80
16627;DHT22;8427;52.204;7.202;2023-07-24T12:26:05;22.80;65.20
16627;DHT22;8427;52.204;7.202;2023-07-24T12:28:33;22.90;64.00
16627;DHT22;8427;52.204;7.202;2023-07-24T12:31:02;23.10;64.90
16627;DHT22;8427;52.204;7.202;2023-07-24T12:33:30;23.10;63.00
16627;DHT22;8427;52.204;7.202;2023-07-24T12:35:58;23.00;62.20
16627;DHT22;8427;52.204;7.202;2023-07-24T12:38:26;23.00;60.70
16627;DHT22;8427;52.204;7.202;2023-07-24T12:40:55;22.90;61.40
16627;DHT22;8427;52.204;7.202;2023-07-24T12:43:23;22.80;61.40
16627;DHT22;8427;52.204;7.202;2023-07-24T12:45:51;22.90;62.70
16627;DHT22;8427;52.204;7.202;2023-07-24T12:48:19;22.80;61.60
16627;DHT22;8427;52.204;7.202;2023-07-24T12:50:47;23.00;59.80
16627;DHT22;8427;52.204;7.202;2023-07-24T12:53:15;23.20;59.80
16627;DHT22;8427;52.204;7.202;2023-07-24T12:55:53;23.50;60.00
16627;DHT22;8427;52.204;7.202;2023-07-24T12:58:23;23.70;58.80
16627;DHT22;8427;52.204;7.202;2023-07-24T13:00:50;23.70;58.30
16627;DHT22;8427;52.204;7.202;2023-07-24T13:03:18;23.80;57.80
16627;DHT22;8427;52.204;7.202;2023-07-24T13:05:48;23.50;59.40
16627;DHT22;8427;52.204;7.202;2023-07-24T13:08:15;23.50;58.60
16627;DHT22;8427;52.204;7.202;2023-07-24T13:10:48;23.60;58.40
16627;DHT22;8427;52.204;7.202;2023-07-24T13:13:16;23.50;56.60
16627;DHT22;8427;52.204;7.202;2023-07-24T13:15:45;23.60;59.30
16627;DHT22;8427;52.204;7.202;2023-07-24T13:18:14;23.80;58.40
16627;DHT22;8427;52.204;7.202;2023-07-24T13:20:54;23.80;57.80
16627;DHT22;8427;52.204;7.202;2023-07-24T13:23:22;23.70;56.70
16627;DHT22;8427;52.204;7.202;2023-07-24T13:25:51;23.70;59.20
16627;DHT22;8427;52.204;7.202;2023-07-24T13:28:19;24.10;59.20
16627;DHT22;8427;52.204;7.202;2023-07-24T13:30:48;24.10;55.90
16627;DHT22;8427;52.204;7.202;2023-07-24T13:33:16;24.10;56.30
16627;DHT22;8427;52.204;7.202;2023-07-24T13:35:45;24.10;56.50
16627;DHT22;8427;52.204;7.202;2023-07-24T13:38:13;24.10;54.70
16627;DHT22;8427;52.204;7.202;2023-07-24T13:40:41;24.00;55.50
16627;DHT22;8427;52.204;7.202;2023-07-24T13:43:09;23.90;56.60
16627;DHT22;8427;52.204;7.202;2023-07-24T13:45:36;24.00;55.60
16627;DHT22;8427;52.204;7.202;2023-07-24T13:48:06;23.90;56.90
16627;DHT22;8427;52.204;7.202;2023-07-24T13:50:34;24.00;55.50
16627;DHT22;8427;52.204;7.202;2023-07-24T13:53:01;24.10;56.00
16627;DHT22;8427;52.204;7.202;2023-07-24T13:55:29;24.30;57.80
16627;DHT22;8427;52.204;7.202;2023-07-24T13:57:57;24.40;55.70
16627;DHT22;8427;52.204;7.202;2023-07-24T14:00:25;24.60;55.60
16627;DHT22;8427;52.204;7.202;2023-07-24T14:02:53;24.60;55.10
16627;DHT22;8427;52.204;7.202;2023-07-24T14:05:22;24.60;56.80
16627;DHT22;8427;52.204;7.202;2023-07-24T14:07:50;24.40;55.90
16627;DHT22;8427;52.204;7.202;2023-07-24T14:10:18;24.50;57.90
16627;DHT22;8427;52.204;7.202;2023-07-24T14:12:46;24.30;57.30
16627;DHT22;8427;52.204;7.202;2023-07-24T14:15:14;24.40;57.00
16627;DHT22;8427;52.204;7.202;2023-07-24T14:17:42;24.50;58.50
16627;DHT22;8427;52.204;7.202;2023-07-24T14:20:10;24.50;57.10
16627;DHT22;8427;52.204;7.202;2023-07-24T14:22:39;24.50;56.10
16627;DHT22;8427;52.204;7.202;2023-07-24T14:25:07;24.60;57.10
16627;DHT22;8427;52.204;7.202;2023-07-24T14:27:35;24.50;56.70
16627;DHT22;8427;52.204;7.202;2023-07-24T14:30:03;24.70;55.70
16627;DHT22;8427;52.204;7.202;2023-07-24T14:32:31;24.50;55.30
16627;DHT22;8427;52.204;7.202;2023-07-24T14:34:59;24.20;55.70
16627;DHT22;8427;52.204;7.202;2023-07-24T14:37:26;24.30;57.00
16627;DHT22;8427;52.204;7.202;2023-07-24T14:39:56;24.50;56.50
16627;DHT22;8427;52.204;7.202;2023-07-24T14:42:23;24.30;55.70
16627;DHT22;8427;52.204;7.202;2023-07-24T14:44:51;24.10;57.60
16627;DHT22;8427;52.204;7.202;2023-07-24T14:47:19;24.10;57.40
16627;DHT22;8427;52.204;7.202;2023-07-24T14:49:47;24.30;59.90
16627;DHT22;8427;52.204;7.202;2023-07-24T14:52:15;24.40;58.30
16627;DHT22;8427;52.204;7.202;2023-07-24T14:54:42;24.50;58.60
16627;DHT22;8427;52.204;7.202;2023-07-24T14:57:11;24.50;56.90
16627;DHT22;8427;52.204;7.202;2023-07-24T14:59:51;24.40;55.50
16627;DHT22;8427;52.204;7.202;2023-07-24T15:02:19;24.30;56.20
16627;DHT22;8427;52.204;7.202;2023-07-24T15:04:47;24.10;55.20
16627;DHT22;8427;52.204;7.202;2023-07-24T15:07:14;24.10;55.50
16627;DHT22;8427;52.204;7.202;2023-07-24T15:09:42;24.00;54.20
16627;DHT22;8427;52.204;7.202;2023-07-24T15:12:11;24.00;54.90
16627;DHT22;8427;52.204;7.202;2023-07-24T15:14:39;24.10;57.50
16627;DHT22;8427;52.204;7.202;2023-07-24T15:17:07;24.40;57.10
16627;DHT22;8427;52.204;7.202;2023-07-24T15:19:35;24.60;54.50
16627;DHT22;8427;52.204;7.202;2023-07-24T15:22:02;24.60;55.40
16627;DHT22;8427;52.204;7.202;2023-07-24T15:24:30;24.60;55.60
16627;DHT22;8427;52.204;7.202;2023-07-24T15:26:58;24.70;55.10
16627;DHT22;8427;52.204;7.202;2023-07-24T15:29:27;24.70;54.20
16627;DHT22;8427;52.204;7.202;2023-07-24T15:31:55;24.60;55.70
16627;DHT22;8427;52.204;7.202;2023-07-24T15:34:23;24.50;55.80
16627;DHT22;8427;52.204;7.202;2023-07-24T15:36:51;24.60;55.90
16627;DHT22;8427;52.204;7.202;2023-07-24T15:39:18;24.50;55.70
16627;DHT22;8427;52.204;7.202;2023-07-24T15:41:46;24.20;55.90
16627;DHT22;8427;52.204;7.202;2023-07-24T15:44:14;23.80;57.00
16627;DHT22;8427;52.204;7.202;2023-07-24T15:46:43;23.60;58.30
16627;DHT22;8427;52.204;7.202;2023-07-24T15:49:13;23.10;58.10
16627;DHT22;8427;52.204;7.202;2023-07-24T15:51:41;22.80;59.00
16627;DHT22;8427;52.204;7.202;2023-07-24T15:54:09;22.50;57.50
16627;DHT22;8427;52.204;7.202;2023-07-24T15:56:37;22.20;54.70